Time;durP1;ratioP1;P1;durP2;ratioP2;P2;SDS_P1;SDS_P2;PMS_P1;PMS_P2;Temp;Humidity;BMP_temperature;BMP_pressure;BME280_temperature;BME280_humidity;BME280_pressure;Samples;Min_cycle;Max_cycle;Signal;HPM_P1;HPM_P2
2022/11/04 00:01:12;;;;;;;11.02;9.07;;;15.80;45.80;;;;;;5032330;28;20233;-40
2022/11/04 00:03:38;;;;;;;11.40;8.57;;;15.80;45.80;;;;;;5032065;28;20194;-40
2022/11/04 00:06:03;;;;;;;9.80;7.47;;;15.80;46.00;;;;;;5031495;28;20617;-40
2022/11/04 00:08:29;;;;;;;10.27;7.87;;;15.80;46.10;;;;;;5031963;28;20174;-40
2022/11/04 00:13:41;;;;;;;11.38;7.95;;;15.80;46.20;;;;;;5032361;28;20165;-40
2022/11/04 00:18:51;;;;;;;16.38;9.20;;;15.70;46.70;;;;;;5032266;28;20185;-40
2022/11/04 00:29:31;;;;;;;15.82;9.50;;;15.70;46.70;;;;;;5031841;28;20311;-42
2022/11/04 00:34:41;;;;;;;12.10;8.80;;;15.80;46.40;;;;;;5033090;28;20165;-43
2022/11/04 00:37:06;;;;;;;13.00;9.67;;;15.80;46.50;;;;;;5035197;28;20174;-43
2022/11/04 00:39:32;;;;;;;15.53;9.53;;;15.80;46.40;;;;;;5035710;28;20170;-43
2022/11/04 00:41:58;;;;;;;12.50;10.00;;;15.80;46.30;;;;;;5035875;28;20202;-43
2022/11/04 00:44:24;;;;;;;15.57;11.57;;;15.80;46.30;;;;;;5035649;28;20177;-43
2022/11/04 00:46:49;;;;;;;11.67;9.37;;;15.80;46.50;;;;;;5035018;28;20177;-43
2022/11/04 00:49:15;;;;;;;13.97;9.83;;;15.70;46.30;;;;;;5035458;28;20194;-43
2022/11/04 00:51:41;;;;;;;18.23;10.40;;;15.70;46.70;;;;;;5035452;28;20667;-43
2022/11/04 00:54:06;;;;;;;13.37;11.10;;;15.60;46.90;;;;;;5035480;28;20166;-43
2022/11/04 00:56:32;;;;;;;15.80;9.70;;;15.60;47.10;;;;;;5034862;28;20178;-43
2022/11/04 00:58:58;;;;;;;15.20;10.80;;;15.60;47.10;;;;;;5035317;28;20189;-43
2022/11/04 01:01:24;;;;;;;13.73;9.13;;;15.70;47.10;;;;;;5035145;28;20486;-43
2022/11/04 01:03:52;;;;;;;13.13;10.00;;;15.70;47.10;;;;;;5035455;28;20182;-43
2022/11/04 01:06:19;;;;;;;14.20;10.90;;;15.70;47.00;;;;;;5034680;28;20178;-43
2022/11/04 01:08:46;;;;;;;14.80;11.40;;;15.70;46.90;;;;;;5035097;28;20174;-43
2022/11/04 01:11:12;;;;;;;11.40;9.95;;;15.70;46.90;;;;;;5035010;28;20531;-43
2022/11/04 01:13:38;;;;;;;14.07;10.38;;;15.70;47.00;;;;;;5035412;28;20178;-43
2022/11/04 01:16:10;;;;;;;14.43;11.18;;;15.70;47.10;;;;;;5034457;28;20257;-43
2022/11/04 01:18:35;;;;;;;21.05;11.73;;;15.70;47.00;;;;;;5035244;28;20182;-43
2022/11/04 01:21:02;;;;;;;18.50;12.50;;;15.70;47.00;;;;;;5034740;28;20198;-43
2022/11/04 01:23:29;;;;;;;17.65;12.57;;;15.70;47.00;;;;;;5035413;28;20521;-43
2022/11/04 01:25:54;;;;;;;17.33;12.25;;;15.70;47.10;;;;;;5034228;28;20174;-43
2022/11/04 01:28:20;;;;;;;17.47;11.80;;;15.70;47.10;;;;;;5034839;28;20173;-43
2022/11/04 01:30:46;;;;;;;13.80;11.43;;;15.70;47.10;;;;;;5034566;28;20468;-43
2022/11/04 01:33:12;;;;;;;14.47;11.60;;;15.70;47.30;;;;;;5034855;28;20166;-43
2022/11/04 01:35:37;;;;;;;19.30;14.37;;;15.70;47.40;;;;;;5034197;28;20538;-43
2022/11/04 01:38:03;;;;;;;20.07;15.33;;;15.70;47.80;;;;;;5034628;28;20644;-43
2022/11/04 01:40:29;;;;;;;21.63;14.20;;;15.70;47.70;;;;;;5034430;28;20172;-43
2022/11/04 01:42:55;;;;;;;19.90;15.70;;;15.70;47.70;;;;;;5034550;28;20432;-43
2022/11/04 01:45:23;;;;;;;17.70;13.27;;;15.70;47.90;;;;;;5034405;28;20201;-43
2022/11/04 01:48:02;;;;;;;21.48;14.10;;;15.70;47.80;;;;;;5033935;28;20174;-43
2022/11/04 01:50:31;;;;;;;17.17;15.40;;;15.60;48.00;;;;;;5034236;28;20208;-43
2022/11/04 01:53:03;;;;;;;20.60;15.02;;;15.60;48.30;;;;;;5034551;28;20573;-42
2022/11/04 01:55:33;;;;;;;20.92;14.82;;;15.60;48.20;;;;;;5034363;28;20174;-42
2022/11/04 01:58:08;;;;;;;21.02;15.80;;;15.60;48.40;;;;;;5034241;28;20189;-42
2022/11/04 02:00:34;;;;;;;22.63;16.02;;;15.70;48.30;;;;;;5034099;28;20188;-42
2022/11/04 02:03:07;;;;;;;20.20;14.00;;;15.70;48.20;;;;;;5034226;28;20174;-42
2022/11/04 02:05:33;;;;;;;21.52;15.60;;;15.70;48.20;;;;;;5033477;28;20763;-43
2022/11/04 02:08:03;;;;;;;19.80;14.13;;;15.70;48.10;;;;;;5033814;28;20600;-42
2022/11/04 02:10:30;;;;;;;18.20;15.38;;;15.70;48.10;;;;;;5034107;28;20209;-42
2022/11/04 02:12:58;;;;;;;18.73;13.63;;;15.70;48.30;;;;;;5033984;28;20576;-42
2022/11/04 02:15:47;;;;;;;22.50;16.77;;;15.70;48.30;;;;;;5033828;28;20257;-43
2022/11/04 02:18:45;;;;;;;19.85;16.55;;;15.80;48.00;;;;;;5033870;28;20253;-43
2022/11/04 02:21:36;;;;;;;24.13;16.02;;;15.80;48.20;;;;;;5033791;28;20633;-42
2022/11/04 02:24:14;;;;;;;21.38;16.13;;;15.80;48.00;;;;;;5033833;28;20170;-42
2022/11/04 02:26:58;;;;;;;20.33;17.42;;;15.80;48.00;;;;;;5033157;28;20653;-42
2022/11/04 02:30:06;;;;;;;19.83;15.90;;;15.90;47.90;;;;;;5033755;28;20216;-42
2022/11/04 02:33:10;;;;;;;25.50;17.30;;;15.90;47.80;;;;;;5021221;28;20292;-42
2022/11/04 02:35:53;;;;;;;22.95;17.48;;;16.00;47.80;;;;;;5032410;28;20617;-42
2022/11/04 02:38:35;;;;;;;21.02;15.93;;;16.00;47.90;;;;;;5033755;28;20158;-42
2022/11/04 02:41:13;;;;;;;21.15;15.93;;;15.90;48.00;;;;;;5033614;28;20243;-42
2022/11/04 02:43:51;;;;;;;23.10;17.48;;;16.00;47.80;;;;;;5033279;28;20177;-43
2022/11/04 02:46:22;;;;;;;24.17;17.92;;;16.00;47.60;;;;;;5032755;28;20170;-42
2022/11/04 02:49:13;;;;;;;21.40;15.80;;;16.00;47.50;;;;;;5033188;28;20172;-42
2022/11/04 02:51:41;;;;;;;19.65;15.77;;;16.10;47.60;;;;;;5033401;28;20200;-42
2022/11/04 02:54:17;;;;;;;27.50;17.10;;;16.10;47.60;;;;;;5033113;28;20594;-43
2022/11/04 02:56:49;;;;;;;23.60;18.00;;;16.10;47.60;;;;;;5032454;28;20178;-42
2022/11/04 02:59:35;;;;;;;28.45;19.83;;;16.10;47.60;;;;;;5033155;28;20164;-42
2022/11/04 03:02:04;;;;;;;30.58;18.17;;;16.10;47.60;;;;;;5033280;28;20202;-42
2022/11/04 03:04:36;;;;;;;26.02;19.25;;;16.00;47.70;;;;;;5033001;28;20162;-42
2022/11/04 03:07:05;;;;;;;23.33;18.20;;;16.10;47.80;;;;;;5032374;28;20240;-42
2022/11/04 03:09:33;;;;;;;26.85;19.33;;;16.10;47.90;;;;;;5033089;28;20202;-42
2022/11/04 03:12:13;;;;;;;23.33;17.70;;;16.10;47.70;;;;;;5032786;28;20213;-42
2022/11/04 03:14:51;;;;;;;25.23;19.40;;;16.10;47.60;;;;;;5032732;28;20169;-43
2022/11/04 03:17:31;;;;;;;25.40;18.98;;;16.10;47.70;;;;;;5032130;28;20165;-41
2022/11/04 03:19:59;;;;;;;23.13;18.15;;;16.10;47.80;;;;;;5032730;28;20181;-43
2022/11/04 03:22:37;;;;;;;22.73;17.45;;;16.10;48.00;;;;;;5032385;28;20573;-43
2022/11/04 03:25:06;;;;;;;22.58;18.17;;;16.10;47.70;;;;;;5032949;28;20185;-42
2022/11/04 03:27:56;;;;;;;23.85;16.33;;;16.10;47.70;;;;;;5031928;28;20177;-43
2022/11/04 03:30:23;;;;;;;23.08;19.08;;;16.10;47.70;;;;;;5032409;28;20678;-42
2022/11/04 03:33:26;;;;;;;19.20;15.27;;;16.10;47.60;;;;;;5032470;28;20162;-42
2022/11/04 03:35:52;;;;;;;20.00;15.80;;;16.10;47.60;;;;;;5031782;28;20161;-43
2022/11/04 03:38:20;;;;;;;16.80;15.00;;;16.10;47.60;;;;;;5032382;28;20182;-43
2022/11/04 03:40:45;;;;;;;22.17;15.60;;;16.00;47.40;;;;;;5032289;28;20951;-42
2022/11/04 03:43:20;;;;;;;18.23;15.97;;;16.00;47.40;;;;;;5032282;28;20182;-42
2022/11/04 03:45:46;;;;;;;21.42;16.77;;;16.00;47.40;;;;;;5031743;28;20248;-42
2022/11/04 03:48:12;;;;;;;22.80;16.23;;;16.00;47.40;;;;;;5032464;28;20669;-42
2022/11/04 03:50:43;;;;;;;21.53;15.80;;;15.90;47.40;;;;;;5032045;28;20213;-42
2022/11/04 03:53:11;;;;;;;18.00;14.63;;;15.90;47.50;;;;;;5032254;28;20404;-42
2022/11/04 03:55:41;;;;;;;19.80;16.38;;;15.90;47.30;;;;;;5031607;28;20249;-42
2022/11/04 03:58:34;;;;;;;22.70;17.10;;;15.80;47.30;;;;;;5032164;28;20166;-43
2022/11/04 04:01:37;;;;;;;35.10;17.00;;;15.80;47.40;;;;;;5032100;28;20200;-42
2022/11/04 04:04:37;;;;;;;23.13;17.83;;;15.70;47.60;;;;;;5032106;28;20248;-42
2022/11/04 04:07:17;;;;;;;22.08;17.25;;;15.70;47.90;;;;;;5031523;28;20237;-43
2022/11/04 04:09:45;;;;;;;25.17;18.50;;;15.60;47.90;;;;;;5031111;28;20192;-42
2022/11/04 04:12:23;;;;;;;22.35;17.77;;;15.60;47.90;;;;;;5031959;28;20850;-42
2022/11/04 04:14:52;;;;;;;19.90;15.70;;;15.60;47.90;;;;;;5032023;28;20162;-42
2022/11/04 04:17:38;;;;;;;24.90;17.20;;;15.60;47.80;;;;;;5031627;28;20471;-42
2022/11/04 04:20:09;;;;;;;18.50;16.10;;;15.70;47.90;;;;;;5032021;28;20568;-42
2022/11/04 04:22:47;;;;;;;20.30;15.35;;;15.60;47.80;;;;;;5031719;28;20720;-42
2022/11/04 04:28:02;;;;;;;23.38;18.17;;;15.60;48.00;;;;;;5032160;28;20189;-44
2022/11/04 04:30:28;;;;;;;22.38;16.35;;;15.60;48.30;;;;;;5039316;23;20225;-42
2022/11/04 04:32:54;;;;;;;23.20;17.73;;;15.60;48.20;;;;;;5031703;28;20697;-43
2022/11/04 04:35:41;;;;;;;17.97;15.30;;;15.60;48.20;;;;;;5031762;28;20261;-44
2022/11/04 04:46:59;;;;;;;28.67;20.35;;;15.70;48.50;;;;;;5031573;28;20250;-42
2022/11/04 04:49:33;;;;;;;31.70;20.40;;;15.70;48.50;;;;;;5031521;28;20220;-43
2022/11/04 04:52:01;;;;;;;23.15;18.25;;;15.70;48.60;;;;;;5031745;28;20155;-42
2022/11/04 04:54:27;;;;;;;26.55;21.50;;;15.80;48.70;;;;;;5031537;28;20248;-42
2022/11/04 04:56:53;;;;;;;33.37;21.17;;;15.80;48.50;;;;;;5031074;28;20166;-42
2022/11/04 04:59:18;;;;;;;25.40;19.00;;;15.90;48.70;;;;;;5031486;28;20495;-42
2022/11/04 05:01:44;;;;;;;28.80;22.07;;;15.80;48.60;;;;;;5031634;28;20533;-42
2022/11/04 05:04:10;;;;;;;30.27;22.40;;;15.90;48.70;;;;;;5031576;28;20206;-43
2022/11/04 05:06:36;;;;;;;28.70;20.07;;;15.90;49.00;;;;;;5031102;28;20189;-42
2022/11/04 05:09:02;;;;;;;25.23;22.03;;;15.90;49.00;;;;;;5031540;28;20206;-42
2022/11/04 05:11:28;;;;;;;32.03;23.42;;;15.90;48.90;;;;;;5031398;28;20177;-42
2022/11/04 05:13:54;;;;;;;33.10;23.60;;;15.90;49.40;;;;;;5031504;28;20174;-42
2022/11/04 05:16:19;;;;;;;35.57;24.70;;;15.90;49.20;;;;;;5030966;28;20474;-42
2022/11/04 05:18:45;;;;;;;38.17;27.00;;;15.90;49.20;;;;;;5031641;28;20170;-42
2022/11/04 05:21:14;;;;;;;29.03;23.50;;;15.90;49.30;;;;;;5033162;28;20433;-42
2022/11/04 05:23:40;;;;;;;37.88;28.40;;;15.90;49.30;;;;;;5034877;28;20248;-42
2022/11/04 05:26:05;;;;;;;35.03;26.67;;;15.90;49.50;;;;;;5034311;28;20201;-42
2022/11/04 05:28:32;;;;;;;43.60;25.23;;;16.00;49.70;;;;;;5034843;28;20458;-42
2022/11/04 05:31:03;;;;;;;42.85;27.00;;;16.00;49.50;;;;;;5034577;28;20202;-42
2022/11/04 05:33:29;;;;;;;47.53;30.17;;;16.00;49.70;;;;;;5034748;28;20209;-42
2022/11/04 05:35:54;;;;;;;44.23;29.00;;;16.00;49.70;;;;;;5034280;28;20198;-42
2022/11/04 05:38:20;;;;;;;40.73;28.63;;;16.00;50.20;;;;;;5034762;28;20177;-42
2022/11/04 05:40:46;;;;;;;41.40;28.00;;;16.00;49.80;;;;;;5034459;28;20424;-42
2022/11/04 05:43:11;;;;;;;38.53;28.83;;;16.00;49.80;;;;;;5034536;28;20645;-41
2022/11/04 05:45:37;;;;;;;42.27;30.40;;;16.00;49.80;;;;;;5033966;28;20219;-42
2022/11/04 05:48:04;;;;;;;43.80;29.70;;;16.00;49.70;;;;;;5034418;28;20205;-42
2022/11/04 05:50:31;;;;;;;44.13;32.45;;;16.10;49.80;;;;;;5034122;28;20205;-42
2022/11/04 05:52:58;;;;;;;42.40;30.27;;;16.10;49.70;;;;;;5034226;28;20189;-42
2022/11/04 05:55:25;;;;;;;42.15;29.98;;;16.10;49.70;;;;;;5034237;28;20162;-42
2022/11/04 05:57:50;;;;;;;45.33;28.90;;;16.10;49.60;;;;;;5034081;28;20170;-42
2022/11/04 06:00:16;;;;;;;44.00;30.27;;;16.10;49.60;;;;;;5034179;28;20531;-42
2022/11/04 06:02:42;;;;;;;38.03;28.80;;;16.00;49.50;;;;;;5034175;28;20424;-42
2022/11/04 06:05:08;;;;;;;38.13;28.30;;;16.00;49.50;;;;;;5034355;28;20411;-42
2022/11/04 06:07:34;;;;;;;38.72;28.73;;;16.00;49.50;;;;;;5033672;28;20174;-42
2022/11/04 06:10:00;;;;;;;37.10;29.00;;;16.00;49.60;;;;;;5033862;28;20251;-42
2022/11/04 06:12:26;;;;;;;36.97;26.60;;;16.00;49.60;;;;;;5016266;28;20424;-42
2022/11/04 06:14:52;;;;;;;39.30;29.63;;;16.00;49.50;;;;;;5033940;28;20220;-42
2022/11/04 06:17:19;;;;;;;40.67;30.00;;;16.00;49.50;;;;;;5033481;28;20185;-42
2022/11/04 06:19:45;;;;;;;33.20;25.67;;;15.90;49.60;;;;;;5033728;28;20186;-42
2022/11/04 06:22:13;;;;;;;39.45;26.27;;;15.90;49.50;;;;;;5033844;28;20232;-42
2022/11/04 06:24:39;;;;;;;35.53;27.38;;;15.90;49.70;;;;;;5033984;28;20204;-42
2022/11/04 06:27:05;;;;;;;45.08;30.05;;;15.90;49.70;;;;;;5033439;28;20363;-42
2022/11/04 06:29:31;;;;;;;42.03;29.38;;;15.90;49.70;;;;;;5033470;28;20217;-42
2022/11/04 06:31:57;;;;;;;44.13;31.07;;;15.90;49.70;;;;;;5032788;28;20249;-41
2022/11/04 06:34:23;;;;;;;48.10;31.20;;;15.90;49.70;;;;;;5033638;28;20915;-42
2022/11/04 06:36:49;;;;;;;45.33;30.70;;;15.90;49.70;;;;;;5033134;28;20166;-42
2022/11/04 06:39:15;;;;;;;36.22;27.50;;;15.90;49.80;;;;;;5033381;28;20405;-42
2022/11/04 06:41:41;;;;;;;45.25;29.45;;;15.80;49.70;;;;;;5033681;28;20261;-42
2022/11/04 06:44:07;;;;;;;44.60;31.10;;;15.90;49.80;;;;;;5033620;28;20268;-41
2022/11/04 06:46:36;;;;;;;36.70;24.60;;;15.90;49.90;;;;;;5015108;28;20181;-41
2022/11/04 06:49:03;;;;;;;45.83;32.15;;;15.90;50.30;;;;;;5033188;28;20840;-42
2022/11/04 06:51:29;;;;;;;38.05;25.45;;;15.80;50.40;;;;;;5033555;28;20389;-42
2022/11/04 06:53:55;;;;;;;43.77;29.20;;;15.80;50.40;;;;;;5033200;28;20633;-41
2022/11/04 06:56:21;;;;;;;40.83;27.70;;;15.80;50.50;;;;;;5033278;28;20447;-42
2022/11/04 06:58:48;;;;;;;39.90;27.77;;;15.90;50.60;;;;;;5033209;28;20703;-42
2022/11/04 07:01:16;;;;;;;39.70;28.00;;;15.90;50.60;;;;;;5032991;28;20431;-42
2022/11/04 07:03:42;;;;;;;43.00;30.58;;;15.90;50.60;;;;;;5033036;28;20186;-42
2022/11/04 07:06:09;;;;;;;38.17;26.63;;;15.90;50.80;;;;;;5032477;28;20181;-42
2022/11/04 07:08:35;;;;;;;36.60;25.08;;;16.00;50.60;;;;;;5032649;28;20409;-42
2022/11/04 07:11:01;;;;;;;36.03;24.98;;;16.00;50.70;;;;;;5032879;28;20213;-42
2022/11/04 07:13:27;;;;;;;33.90;23.38;;;16.00;50.70;;;;;;5015105;28;20692;-42
2022/11/04 07:15:53;;;;;;;28.87;21.80;;;16.10;50.80;;;;;;5032294;28;20262;-42
2022/11/04 07:18:19;;;;;;;30.03;20.80;;;16.10;50.70;;;;;;5033180;28;20273;-42
2022/11/04 07:20:45;;;;;;;34.15;23.38;;;16.20;50.80;;;;;;5032936;28;20859;-42
2022/11/04 07:23:11;;;;;;;31.17;20.95;;;16.30;50.80;;;;;;5032634;28;20174;-42
2022/11/04 07:25:37;;;;;;;27.20;19.27;;;16.30;50.90;;;;;;5032034;28;20176;-42
2022/11/04 07:28:03;;;;;;;27.83;18.57;;;16.40;51.00;;;;;;5032646;28;20289;-42
2022/11/04 07:30:29;;;;;;;27.63;19.03;;;16.40;50.80;;;;;;5032268;28;20588;-42
2022/11/04 07:32:54;;;;;;;23.55;17.80;;;16.50;50.80;;;;;;5032756;28;20405;-42
2022/11/04 07:35:20;;;;;;;28.77;19.57;;;16.60;50.80;;;;;;5032713;28;20252;-42
2022/11/04 07:37:46;;;;;;;19.37;15.13;;;16.60;50.80;;;;;;5032181;28;20531;-42
2022/11/04 07:40:12;;;;;;;23.07;16.33;;;16.70;50.80;;;;;;5032396;28;20661;-43
2022/11/04 07:42:38;;;;;;;22.60;15.13;;;16.80;50.70;;;;;;5032394;28;20224;-42
2022/11/04 07:45:04;;;;;;;18.73;15.87;;;16.80;51.30;;;;;;5032424;28;20165;-42
2022/11/04 07:47:30;;;;;;;22.67;15.88;;;16.90;50.60;;;;;;5032055;28;20408;-42
2022/11/04 07:49:56;;;;;;;18.83;14.05;;;16.90;50.40;;;;;;5032171;28;20240;-42
2022/11/04 07:52:22;;;;;;;15.73;12.47;;;17.00;50.20;;;;;;5032234;28;20194;-42
2022/11/04 07:54:49;;;;;;;18.45;13.85;;;17.00;50.00;;;;;;5032588;28;20415;-42
2022/11/04 07:57:14;;;;;;;16.73;12.60;;;17.00;50.00;;;;;;5031742;28;20170;-42
2022/11/04 07:59:40;;;;;;;19.50;11.80;;;17.10;50.10;;;;;;5032080;28;20597;-42
2022/11/04 08:02:06;;;;;;;17.83;11.20;;;17.10;49.50;;;;;;5032102;28;20174;-42
2022/11/04 08:04:32;;;;;;;14.60;11.60;;;17.10;49.30;;;;;;5032131;28;20651;-42
2022/11/04 08:06:57;;;;;;;14.60;10.37;;;17.10;49.30;;;;;;5031469;28;20181;-42
2022/11/04 08:09:23;;;;;;;13.40;10.60;;;17.00;49.30;;;;;;5031940;28;20456;-42
2022/11/04 08:11:49;;;;;;;11.90;9.70;;;16.90;49.60;;;;;;5032305;28;20541;-42
2022/11/04 08:14:15;;;;;;;14.60;9.37;;;16.90;49.60;;;;;;5032220;28;20174;-42
2022/11/04 08:16:41;;;;;;;13.30;10.05;;;16.90;49.90;;;;;;5031738;28;20177;-42
2022/11/04 08:19:06;;;;;;;13.60;7.23;;;16.80;49.80;;;;;;5031946;28;20174;-42
2022/11/04 08:21:33;;;;;;;9.17;6.27;;;16.80;49.70;;;;;;5031964;28;20177;-42
2022/11/04 08:24:02;;;;;;;11.57;7.63;;;16.80;49.40;;;;;;5032265;28;20166;-42
2022/11/04 08:26:27;;;;;;;9.50;6.97;;;16.70;49.20;;;;;;5031380;28;20186;-42
2022/11/04 08:28:53;;;;;;;10.13;6.90;;;16.70;49.50;;;;;;5031792;28;20867;-42
2022/11/04 08:31:21;;;;;;;9.10;7.03;;;16.70;49.70;;;;;;5031751;28;20448;-42
2022/11/04 08:33:47;;;;;;;12.88;7.97;;;16.80;49.50;;;;;;5031873;28;20158;-42
2022/11/04 08:36:35;;;;;;;10.40;7.80;;;16.70;49.70;;;;;;5031581;28;20675;-42
2022/11/04 08:39:03;;;;;;;13.10;7.05;;;16.70;49.70;;;;;;5031480;28;20178;-42
2022/11/04 08:41:31;;;;;;;9.77;6.80;;;16.80;49.90;;;;;;5032048;28;20179;-42
2022/11/04 08:43:59;;;;;;;9.80;6.95;;;16.80;49.90;;;;;;5031606;28;20177;-42
2022/11/04 08:46:28;;;;;;;9.07;7.63;;;16.90;50.00;;;;;;5031313;28;20312;-42
2022/11/04 08:48:54;;;;;;;8.50;5.97;;;17.00;50.00;;;;;;5031702;28;20242;-41
2022/11/04 08:51:23;;;;;;;9.90;6.53;;;17.10;50.10;;;;;;5031622;28;20282;-42
2022/11/04 08:53:49;;;;;;;11.18;5.80;;;17.10;50.00;;;;;;5031642;28;20403;-42
2022/11/04 08:56:23;;;;;;;8.80;7.13;;;17.20;49.80;;;;;;5033179;28;20174;-42
2022/11/04 08:58:50;;;;;;;11.30;7.20;;;17.20;49.70;;;;;;5035500;28;20169;-42
2022/11/04 09:01:17;;;;;;;6.95;6.07;;;17.20;49.60;;;;;;5035343;28;20200;-42
2022/11/04 09:03:43;;;;;;;11.15;7.80;;;17.30;49.60;;;;;;5036645;28;20170;-42
2022/11/04 09:06:13;;;;;;;9.50;7.07;;;17.30;49.60;;;;;;5035699;28;20177;-42
2022/11/04 09:08:39;;;;;;;8.95;5.80;;;17.30;49.40;;;;;;5036238;28;20228;-42
2022/11/04 09:11:10;;;;;;;9.27;7.70;;;17.30;49.40;;;;;;5035105;28;20210;-42
2022/11/04 09:13:36;;;;;;;9.98;5.25;;;17.20;49.50;;;;;;5035163;28;20169;-42
2022/11/04 09:16:03;;;;;;;10.15;6.07;;;17.20;49.30;;;;;;5034602;28;20533;-42
2022/11/04 09:18:29;;;;;;;6.70;5.32;;;17.10;49.40;;;;;;5035070;28;20193;-42
2022/11/04 09:20:59;;;;;;;8.30;6.10;;;17.00;49.40;;;;;;5034822;28;20190;-42
2022/11/04 09:23:25;;;;;;;7.57;5.60;;;16.90;49.60;;;;;;5035103;28;20185;-42
2022/11/04 09:25:51;;;;;;;7.10;5.80;;;16.90;49.70;;;;;;5034728;28;20170;-42
2022/11/04 09:28:17;;;;;;;10.20;6.03;;;16.90;49.80;;;;;;5034806;28;20407;-42
2022/11/04 09:30:42;;;;;;;7.10;5.70;;;16.90;49.90;;;;;;5034627;28;20996;-42
2022/11/04 09:33:08;;;;;;;7.10;4.70;;;16.90;50.10;;;;;;5034835;28;20216;-42
2022/11/04 09:35:34;;;;;;;8.18;6.00;;;16.90;50.10;;;;;;5034071;28;20166;-42
2022/11/04 09:38:00;;;;;;;8.47;6.70;;;16.90;50.20;;;;;;5034864;28;20176;-42
2022/11/04 09:40:27;;;;;;;8.23;6.30;;;16.90;50.30;;;;;;5034955;28;20432;-42
2022/11/04 09:43:34;;;;;;;8.20;6.55;;;16.90;50.30;;;;;;5034804;28;20405;-42
2022/11/04 09:46:01;;;;;;;11.55;6.18;;;16.80;50.10;;;;;;4934444;29;20208;-42
2022/11/04 09:48:27;;;;;;;9.98;6.75;;;16.90;50.40;;;;;;5014618;28;20178;-42
2022/11/04 09:50:59;;;;;;;9.20;5.13;;;16.80;50.50;;;;;;5034470;28;20202;-42
2022/11/04 09:53:30;;;;;;;11.35;6.00;;;16.70;50.50;;;;;;5016692;28;20166;-41
2022/11/04 09:56:00;;;;;;;7.85;6.13;;;16.70;50.70;;;;;;5034244;28;20173;-42
2022/11/04 09:58:28;;;;;;;10.20;6.43;;;16.60;50.70;;;;;;5034621;28;20170;-42
2022/11/04 10:01:05;;;;;;;10.40;6.88;;;16.50;51.00;;;;;;5034117;28;20193;-42
2022/11/04 10:03:47;;;;;;;10.82;7.18;;;16.50;51.10;;;;;;5034342;28;20165;-42
2022/11/04 10:06:25;;;;;;;11.88;6.82;;;16.50;51.30;;;;;;5033432;28;20157;-42
2022/11/04 10:08:57;;;;;;;10.07;6.50;;;16.50;51.60;;;;;;5033359;28;20241;-42
2022/11/04 10:11:28;;;;;;;10.60;6.28;;;16.40;51.60;;;;;;5034043;28;20194;-42
2022/11/04 10:14:08;;;;;;;11.40;6.80;;;16.40;51.80;;;;;;5034050;28;20166;-42
2022/11/04 10:16:51;;;;;;;11.98;7.07;;;16.30;52.10;;;;;;5033708;28;20252;-42
2022/11/04 10:19:33;;;;;;;7.82;6.38;;;16.30;52.80;;;;;;5032502;28;20652;-42
2022/11/04 10:22:09;;;;;;;9.52;7.13;;;16.30;52.20;;;;;;5033796;28;20691;-41
2022/11/04 10:24:46;;;;;;;8.27;7.30;;;16.30;52.40;;;;;;5033752;28;20649;-42
2022/11/04 10:27:33;;;;;;;9.57;6.85;;;16.30;52.80;;;;;;5033531;28;20173;-42
2022/11/04 10:30:03;;;;;;;8.48;7.55;;;16.30;52.60;;;;;;5033479;28;20305;-42
2022/11/04 10:32:40;;;;;;;10.93;6.20;;;16.20;52.60;;;;;;5033780;28;20185;-42
2022/11/04 10:35:28;;;;;;;5.75;5.13;;;16.30;52.80;;;;;;5033769;28;20698;-42
2022/11/04 10:37:54;;;;;;;9.90;6.25;;;16.30;52.70;;;;;;5041734;23;20243;-42
2022/11/04 10:40:27;;;;;;;10.80;6.97;;;16.20;52.70;;;;;;5033418;28;20174;-41
2022/11/04 10:42:56;;;;;;;12.73;5.47;;;16.20;52.80;;;;;;5033475;28;20170;-42
2022/11/04 10:45:33;;;;;;;7.35;5.35;;;16.10;52.70;;;;;;5033586;28;20193;-42
2022/11/04 10:48:11;;;;;;;8.52;5.63;;;16.10;52.80;;;;;;5033359;28;20683;-42
2022/11/04 10:50:40;;;;;;;14.73;6.28;;;16.10;52.90;;;;;;5033522;28;20205;-42
2022/11/04 10:53:16;;;;;;;6.70;4.68;;;16.00;53.00;;;;;;5033324;28;20201;-41
2022/11/04 10:55:57;;;;;;;6.40;4.55;;;16.00;52.80;;;;;;5032929;28;20220;-42
2022/11/04 10:58:27;;;;;;;8.50;5.00;;;16.00;52.90;;;;;;5033214;28;20204;-42
2022/11/04 11:00:53;;;;;;;8.20;5.13;;;16.00;53.10;;;;;;5033458;28;20182;-42
2022/11/04 11:03:31;;;;;;;5.50;4.22;;;16.00;52.80;;;;;;5033197;28;20224;-42
2022/11/04 11:06:13;;;;;;;4.80;3.83;;;15.90;52.70;;;;;;5032438;28;20181;-42
2022/11/04 11:08:41;;;;;;;12.95;4.07;;;15.90;52.70;;;;;;5033230;28;20201;-42
2022/11/04 11:11:08;;;;;;;7.43;5.25;;;15.90;52.90;;;;;;5033097;28;20251;-42
2022/11/04 11:13:38;;;;;;;6.85;5.03;;;15.90;52.80;;;;;;5032917;28;20633;-42
2022/11/04 11:16:29;;;;;;;9.13;4.53;;;15.90;52.80;;;;;;5032269;28;20170;-42
2022/11/04 11:19:30;;;;;;;7.32;4.60;;;15.90;52.80;;;;;;5032403;28;20198;-42
2022/11/04 11:21:57;;;;;;;7.50;5.03;;;15.90;52.70;;;;;;4980779;28;20630;-42
2022/11/04 11:24:29;;;;;;;6.93;5.03;;;15.90;52.90;;;;;;5032824;28;20166;-42
2022/11/04 11:27:00;;;;;;;6.03;4.50;;;16.00;53.00;;;;;;5032255;28;20186;-42
2022/11/04 11:29:29;;;;;;;7.97;5.05;;;16.00;52.80;;;;;;5032551;28;20564;-42
2022/11/04 11:31:57;;;;;;;4.72;3.35;;;15.90;52.80;;;;;;5032672;28;20178;-42
2022/11/04 11:34:31;;;;;;;6.57;5.10;;;15.90;52.90;;;;;;5032595;28;20162;-42
2022/11/04 11:36:58;;;;;;;5.90;4.80;;;15.90;53.00;;;;;;5031895;28;20193;-42
2022/11/04 11:39:27;;;;;;;5.80;5.28;;;15.90;53.00;;;;;;5032447;28;20351;-42
2022/11/04 11:42:00;;;;;;;5.43;4.18;;;15.90;53.00;;;;;;5032553;28;20174;-42
2022/11/04 11:44:30;;;;;;;7.38;4.55;;;15.90;53.10;;;;;;5032513;28;20188;-42
2022/11/04 11:47:00;;;;;;;5.18;4.43;;;15.90;53.00;;;;;;5031782;28;20205;-42
2022/11/04 11:49:35;;;;;;;6.72;4.55;;;15.90;53.20;;;;;;5032456;28;20315;-42
2022/11/04 11:52:36;;;;;;;8.27;4.97;;;15.90;53.20;;;;;;5032867;28;20169;-42
2022/11/04 11:55:23;;;;;;;5.35;4.18;;;15.90;53.20;;;;;;5032823;28;20157;-42
2022/11/04 11:57:55;;;;;;;6.97;5.55;;;15.90;53.30;;;;;;5031632;28;20186;-42
2022/11/04 12:00:27;;;;;;;10.77;5.50;;;15.90;53.30;;;;;;5032438;28;20177;-42
2022/11/04 12:03:10;;;;;;;8.27;5.20;;;15.90;53.20;;;;;;5032110;28;20168;-42
2022/11/04 12:05:41;;;;;;;6.90;5.30;;;15.90;53.40;;;;;;5031523;28;20185;-42
2022/11/04 12:08:31;;;;;;;6.15;5.50;;;15.80;53.20;;;;;;5014154;28;20194;-42
2022/11/04 12:11:33;;;;;;;5.40;4.30;;;15.90;53.20;;;;;;5032073;28;20244;-42
2022/11/04 12:14:07;;;;;;;5.00;3.85;;;15.80;53.20;;;;;;5032408;28;20751;-41
2022/11/04 12:16:57;;;;;;;6.57;4.25;;;15.70;53.00;;;;;;5031518;28;20156;-42
2022/11/04 12:19:26;;;;;;;5.03;3.80;;;15.80;53.20;;;;;;5031917;28;20181;-42
2022/11/04 12:22:10;;;;;;;3.30;3.00;;;15.70;53.00;;;;;;5031952;28;20166;-42
2022/11/04 12:25:04;;;;;;;5.38;3.75;;;15.70;52.60;;;;;;5031944;28;20166;-42
2022/11/04 12:28:01;;;;;;;6.03;3.55;;;15.70;52.80;;;;;;4993305;28;20325;-42
2022/11/04 12:30:31;;;;;;;4.95;3.35;;;15.70;52.80;;;;;;5032698;28;20208;-42
2022/11/04 12:33:13;;;;;;;4.28;3.88;;;15.60;52.80;;;;;;5035905;28;20170;-42
2022/11/04 12:36:03;;;;;;;4.10;3.58;;;15.70;52.90;;;;;;5035328;28;20154;-42
2022/11/04 12:38:55;;;;;;;4.95;3.38;;;15.70;52.90;;;;;;5035683;28;20201;-41
2022/11/04 12:41:37;;;;;;;5.95;4.25;;;15.70;52.60;;;;;;5035783;28;20533;-42
2022/11/04 12:44:25;;;;;;;5.20;3.47;;;15.70;52.70;;;;;;5036093;28;20166;-42
2022/11/04 12:47:07;;;;;;;4.78;3.45;;;15.70;52.70;;;;;;5035278;28;20593;-42
2022/11/04 12:50:02;;;;;;;8.57;4.35;;;15.60;52.70;;;;;;5035865;28;20205;-42
2022/11/04 12:53:01;;;;;;;4.80;4.00;;;15.70;52.70;;;;;;5035997;28;20212;-42
2022/11/04 12:55:36;;;;;;;4.60;3.95;;;15.70;52.80;;;;;;5035430;28;20189;-42
2022/11/04 12:58:38;;;;;;;4.97;4.47;;;15.70;52.80;;;;;;5035333;28;20746;-42
2022/11/04 13:01:11;;;;;;;6.93;4.43;;;15.70;52.70;;;;;;5035560;28;20178;-42
2022/11/04 13:04:08;;;;;;;7.80;4.50;;;15.60;52.60;;;;;;5035371;28;20178;-42
2022/11/04 13:06:44;;;;;;;10.20;4.63;;;15.60;52.70;;;;;;5034895;28;20162;-42
2022/11/04 13:09:16;;;;;;;7.22;4.95;;;15.60;52.70;;;;;;5035190;28;20166;-42
2022/11/04 13:12:11;;;;;;;7.15;4.68;;;15.60;52.70;;;;;;5035241;28;20158;-42
2022/11/04 13:15:01;;;;;;;11.88;5.63;;;15.60;52.70;;;;;;5035212;28;20241;-42
2022/11/04 13:17:34;;;;;;;8.88;5.88;;;15.60;52.60;;;;;;5022749;28;20454;-42
2022/11/04 13:20:30;;;;;;;8.90;5.30;;;15.60;52.70;;;;;;5035366;28;20174;-42
2022/11/04 13:23:01;;;;;;;8.50;5.50;;;15.60;52.50;;;;;;5035328;28;20173;-42
2022/11/04 13:25:40;;;;;;;7.35;5.78;;;15.60;52.60;;;;;;5035509;28;20186;-42